KLEW/LEW METAR and TAF weather

Enter ICAO airport designator
Station Type Date Time Source
KLEW METAR 2021/01/17 16:56 UTC NOAA

KLEW 171656Z AUTO 23012G20KT 10SM SCT036 BKN048 OVC060 04/01 A2923 RMK AO2 SLP906 T00390011


Station Type Date Time Source
KLEW Decoded METAR 2021/01/17 16:56 UTC NOAA

Auburn-Lewiston, ME, United States (KLEW) 44-03N 070-17W
Jan 17, 2021 - 11:56 AM EST / 2021.01.17 1656 UTC
Wind: from the SW (230 degrees) at 14 MPH (12 KT) gusting to 23 MPH (20 KT):0
Visibility: 10 mile(s):0
Sky conditions: overcast
Temperature: 39.0 F (3.9 C)
Dew Point: 34.0 F (1.1 C)
Relative Humidity: 81%
Pressure (altimeter): 29.23 in. Hg (989 hPa)
ob: KLEW 171656Z AUTO 23012G20KT 10SM SCT036 BKN048 OVC060 04/01 A2923 RMK AO2 SLP906 T00390011
cycle: 17

Station Type Date Time Source
KLEW TAF UTC NOAA

Error!

Example: see airport list